Deary, Idaho
Current Conditions -  °F | °C
As of 6:11 AM on Wednesday 28 Jan 2015 (Local Time) from KPUW Reporting Station
Moderate Fog Moderate Fog  
Wind Chill: 35°   Ceiling: 200
Heat Index: 39°   Visibility: 0.5mi
Dew Point: 38°   Wind: 6mph
Humidity: 96%   Direction: 180°S
Pressure: 30.3"   Gusts: NA
Location:  46.8°N, 116.56°W
Report Text: KPUW 281411Z AUTO 18005KT 1/2SM FG VV002 04/03 A3030 RMK AO2 T00390033
Loading
Personal Weather Stations






























Interactive Weather Map New forecast layout! Learn more

10-Day Weather Forecast

Advertisements
Track Severe Weather on mobile